createdAt,value
2017-07-05T00:00:29.706Z,16.90
2017-07-05T00:02:59.646Z,17.00
2017-07-05T00:05:28.759Z,17.10
2017-07-05T00:07:58.101Z,16.90
2017-07-05T00:10:26.598Z,16.90
2017-07-05T00:12:55.363Z,16.80
2017-07-05T00:15:23.923Z,16.70
2017-07-05T00:17:51.946Z,16.80
2017-07-05T00:20:21.094Z,16.80
2017-07-05T00:22:49.501Z,16.80
2017-07-05T00:25:18.521Z,16.80
2017-07-05T00:27:48.986Z,16.80
2017-07-05T00:30:17.189Z,16.80
2017-07-05T00:32:50.290Z,16.70
2017-07-05T00:35:22.280Z,16.60
2017-07-05T00:37:51.479Z,16.50
2017-07-05T00:42:55.374Z,16.40
2017-07-05T00:45:24.779Z,16.40
2017-07-05T00:47:54.191Z,16.30
2017-07-05T00:50:23.661Z,16.10
2017-07-05T00:55:31.406Z,16.10
2017-07-05T00:58:00.079Z,16.20
2017-07-05T01:00:28.241Z,16.20
2017-07-05T01:02:56.994Z,16.20
2017-07-05T01:05:25.405Z,16.20
2017-07-05T01:08:11.226Z,16.20
2017-07-05T01:10:42.678Z,16.20
2017-07-05T01:13:10.398Z,16.20
2017-07-05T01:15:37.930Z,16.10
2017-07-05T01:18:05.542Z,16.10
2017-07-05T01:26:32.955Z,16.00
2017-07-05T01:29:03.095Z,15.90
2017-07-05T01:31:47.095Z,15.90
2017-07-05T01:39:33.833Z,15.80
2017-07-05T01:59:14.154Z,15.40
2017-07-05T02:04:29.938Z,15.40
2017-07-05T02:07:24.831Z,15.30
2017-07-05T02:09:56.368Z,15.30
2017-07-05T02:12:34.591Z,15.30
2017-07-05T02:15:13.913Z,15.30
2017-07-05T02:17:59.028Z,15.30
2017-07-05T02:26:07.701Z,15.20
2017-07-05T02:28:48.711Z,15.20
2017-07-05T02:34:16.250Z,15.10
2017-07-05T02:47:47.879Z,15.00
2017-07-05T02:53:15.013Z,15.00
2017-07-05T02:58:30.109Z,15.00
2017-07-05T03:01:08.792Z,15.00
2017-07-05T03:03:46.638Z,15.00
2017-07-05T03:09:11.241Z,14.90
2017-07-05T03:11:51.936Z,14.90
2017-07-05T03:17:14.997Z,14.80
2017-07-05T03:19:49.949Z,14.80
2017-07-05T03:22:17.492Z,14.80
2017-07-05T03:24:50.681Z,14.80
2017-07-05T03:30:07.702Z,14.80
2017-07-05T03:32:37.125Z,14.80
2017-07-05T03:35:09.935Z,14.80
2017-07-05T03:40:14.970Z,14.90
2017-07-05T03:42:43.455Z,15.00
2017-07-05T03:45:21.532Z,15.00
2017-07-05T03:48:08.648Z,15.00
2017-07-05T03:56:20.349Z,15.10
2017-07-05T03:58:56.422Z,15.00
2017-07-05T04:04:05.575Z,15.00
2017-07-05T04:06:44.207Z,15.00
2017-07-05T04:09:15.247Z,15.00
2017-07-05T04:11:48.509Z,15.10
2017-07-05T04:14:19.293Z,15.10
2017-07-05T04:16:48.136Z,15.20
2017-07-05T04:19:16.405Z,15.20
2017-07-05T04:21:44.814Z,15.10
2017-07-05T04:24:14.255Z,15.20
2017-07-05T04:26:41.791Z,15.30
2017-07-05T04:29:10.752Z,15.50
2017-07-05T04:31:38.362Z,15.40
2017-07-05T04:34:06.686Z,15.50
2017-07-05T04:36:34.250Z,15.60
2017-07-05T04:39:02.146Z,15.70
2017-07-05T04:41:30.482Z,15.90
2017-07-05T04:43:58.965Z,15.90
2017-07-05T04:46:26.887Z,16.00
2017-07-05T04:48:55.133Z,16.10
2017-07-05T04:51:23.169Z,16.20
2017-07-05T04:53:51.459Z,16.20
2017-07-05T04:56:20.531Z,16.30
2017-07-05T04:58:48.098Z,16.30
2017-07-05T05:01:16.673Z,16.30
2017-07-05T05:03:46.094Z,16.40
2017-07-05T05:06:14.209Z,16.50
2017-07-05T05:08:42.543Z,16.60
2017-07-05T05:11:12.840Z,16.60
2017-07-05T05:13:40.426Z,16.70
2017-07-05T05:16:08.775Z,16.80
2017-07-05T05:18:38.149Z,16.90
2017-07-05T05:21:06.520Z,17.00
2017-07-05T05:23:34.825Z,17.10
2017-07-05T05:26:02.402Z,17.10
2017-07-05T05:28:29.987Z,17.10
2017-07-05T05:30:58.251Z,17.20
2017-07-05T05:33:27.919Z,17.30
2017-07-05T05:35:57.186Z,17.40
2017-07-05T05:38:26.454Z,17.70
2017-07-05T05:40:54.034Z,17.70
2017-07-05T05:43:22.170Z,17.70
2017-07-05T05:45:50.632Z,17.80
2017-07-05T05:48:18.230Z,17.90
2017-07-05T05:50:46.948Z,18.00
2017-07-05T05:53:15.270Z,18.20
2017-07-05T05:55:43.761Z,18.10
2017-07-05T05:58:12.056Z,18.30
2017-07-05T06:00:40.463Z,18.40
2017-07-05T06:03:08.798Z,18.60
2017-07-05T06:05:36.999Z,18.60
2017-07-05T06:08:04.538Z,18.70
2017-07-05T06:10:33.794Z,18.90
2017-07-05T06:13:01.908Z,19.20
2017-07-05T06:15:30.118Z,19.80
2017-07-05T06:17:59.282Z,21.40
2017-07-05T06:20:30.064Z,21.40
2017-07-05T06:22:58.442Z,22.30
2017-07-05T06:25:27.361Z,23.80
2017-07-05T06:27:55.246Z,23.70
2017-07-05T06:30:24.584Z,24.50
2017-07-05T06:32:52.889Z,25.50
2017-07-05T06:35:21.293Z,25.40
2017-07-05T06:37:49.328Z,25.90
2017-07-05T06:40:18.756Z,26.00
2017-07-05T06:42:46.321Z,26.40
2017-07-05T06:45:13.872Z,26.70
2017-07-05T06:47:42.013Z,27.20
2017-07-05T06:50:09.656Z,27.20
2017-07-05T06:52:39.465Z,27.60
2017-07-05T06:55:07.802Z,27.50
2017-07-05T06:57:37.943Z,27.50
2017-07-05T07:00:06.134Z,28.00
2017-07-05T07:02:33.915Z,28.20
2017-07-05T07:05:01.449Z,28.00
2017-07-05T07:07:29.031Z,28.00
2017-07-05T07:09:58.070Z,27.90
2017-07-05T07:12:25.621Z,27.50
2017-07-05T07:14:56.402Z,27.20
2017-07-05T07:17:25.309Z,27.10
2017-07-05T07:19:53.738Z,27.10
2017-07-05T07:22:21.593Z,27.20
2017-07-05T07:24:49.851Z,27.20
2017-07-05T07:27:18.398Z,26.80
2017-07-05T07:29:46.732Z,26.20
2017-07-05T07:32:15.620Z,26.20
2017-07-05T07:34:44.077Z,26.00
2017-07-05T07:37:12.356Z,26.00
2017-07-05T07:39:42.534Z,25.90
2017-07-05T07:42:12.055Z,25.40
2017-07-05T07:44:41.407Z,25.40
2017-07-05T07:47:09.523Z,25.50
2017-07-05T07:52:10.863Z,25.90
2017-07-05T07:54:40.081Z,26.20
2017-07-05T07:57:11.134Z,26.10
2017-07-05T07:59:39.129Z,26.10
2017-07-05T08:02:07.495Z,26.20
2017-07-05T08:04:35.594Z,26.40
2017-07-05T08:07:03.197Z,26.30
2017-07-05T08:09:34.236Z,26.50
2017-07-05T08:12:02.514Z,26.40
2017-07-05T08:14:32.674Z,26.30
2017-07-05T08:17:00.278Z,26.40
2017-07-05T08:19:29.364Z,26.30
2017-07-05T08:21:57.707Z,26.30
2017-07-05T08:24:25.775Z,26.30
2017-07-05T08:26:54.131Z,26.30
2017-07-05T08:29:24.164Z,26.30
2017-07-05T08:31:51.703Z,26.30
2017-07-05T08:34:19.240Z,26.30
2017-07-05T08:36:49.139Z,26.00
2017-07-05T08:39:17.023Z,26.00
2017-07-05T08:41:45.357Z,26.10
2017-07-05T08:44:14.562Z,26.10
2017-07-05T08:46:42.099Z,26.00
2017-07-05T08:49:11.451Z,26.20
2017-07-05T08:51:38.991Z,26.20
2017-07-05T08:54:08.420Z,26.20
2017-07-05T08:56:36.276Z,26.30
2017-07-05T08:59:05.201Z,26.10
2017-07-05T09:01:32.751Z,26.10
2017-07-05T09:04:00.289Z,26.40
2017-07-05T09:06:28.734Z,26.40
2017-07-05T09:08:58.009Z,26.40
2017-07-05T09:11:25.670Z,26.40
2017-07-05T09:13:57.320Z,26.20
2017-07-05T09:16:25.670Z,26.20
2017-07-05T09:18:55.307Z,26.30
2017-07-05T09:21:22.885Z,26.40
2017-07-05T09:23:51.238Z,26.30
2017-07-05T09:26:18.812Z,26.20
2017-07-05T09:28:46.668Z,26.20
2017-07-05T09:31:15.256Z,25.90
2017-07-05T09:33:42.800Z,26.10
2017-07-05T09:36:11.556Z,26.10
2017-07-05T09:38:40.815Z,26.30
2017-07-05T09:41:09.650Z,26.40
2017-07-05T09:43:39.627Z,26.30
2017-07-05T09:46:07.167Z,26.30
2017-07-05T09:48:37.290Z,26.30
2017-07-05T09:51:04.866Z,26.20
2017-07-05T09:53:32.874Z,26.20
2017-07-05T09:56:00.463Z,26.00
2017-07-05T09:58:28.711Z,25.90
2017-07-05T10:00:56.546Z,25.90
2017-07-05T10:03:24.938Z,26.10
2017-07-05T10:05:54.196Z,26.00
2017-07-05T10:08:21.731Z,26.40
2017-07-05T10:10:50.642Z,26.40
2017-07-05T10:13:20.105Z,26.50
2017-07-05T10:15:48.279Z,26.40
2017-07-05T10:18:19.668Z,26.50
2017-07-05T10:23:20.554Z,26.70
2017-07-05T10:25:50.026Z,26.70
2017-07-05T10:28:19.969Z,26.70
2017-07-05T10:30:47.503Z,26.80
2017-07-05T10:33:15.082Z,27.10
2017-07-05T10:35:44.319Z,27.20
2017-07-05T10:38:12.038Z,27.30
2017-07-05T10:40:40.395Z,27.10
2017-07-05T10:43:08.863Z,27.00
2017-07-05T10:45:37.038Z,26.80
2017-07-05T10:48:05.262Z,26.60
2017-07-05T10:50:34.473Z,27.10
2017-07-05T10:53:02.022Z,27.00
2017-07-05T10:55:30.115Z,27.10
2017-07-05T10:57:59.118Z,27.30
2017-07-05T11:00:26.694Z,27.40
2017-07-05T11:02:54.314Z,27.20
2017-07-05T11:05:23.197Z,27.30
2017-07-05T11:07:51.571Z,27.30
2017-07-05T11:10:20.911Z,27.20
2017-07-05T11:18:54.231Z,27.40
2017-07-05T11:21:25.463Z,27.20
2017-07-05T11:23:55.130Z,27.30
2017-07-05T11:26:23.717Z,27.30
2017-07-05T11:28:54.438Z,27.50
2017-07-05T11:31:23.773Z,27.40
2017-07-05T11:33:51.519Z,27.10
2017-07-05T11:36:21.259Z,27.30
2017-07-05T11:38:48.806Z,27.30
2017-07-05T11:41:17.110Z,27.30
2017-07-05T11:43:46.479Z,27.30
2017-07-05T11:46:16.526Z,27.10
2017-07-05T11:48:44.761Z,27.00
2017-07-05T11:51:13.415Z,27.10
2017-07-05T11:53:41.845Z,27.10
2017-07-05T11:56:10.003Z,27.20
2017-07-05T11:58:38.357Z,27.00
2017-07-05T12:01:06.992Z,27.00
2017-07-05T12:03:37.148Z,27.20
2017-07-05T12:06:05.825Z,27.40
2017-07-05T12:08:34.181Z,27.50
2017-07-05T12:11:03.173Z,27.40
2017-07-05T12:13:30.737Z,27.60
2017-07-05T12:16:00.394Z,28.00
2017-07-05T12:18:28.596Z,28.00
2017-07-05T12:20:56.214Z,28.00
2017-07-05T12:23:24.939Z,28.00
2017-07-05T12:25:53.121Z,28.20
2017-07-05T12:28:23.310Z,28.20
2017-07-05T12:30:52.099Z,27.90
2017-07-05T12:33:21.278Z,28.00
2017-07-05T12:35:49.844Z,27.90
2017-07-05T12:38:20.000Z,27.90
2017-07-05T12:40:49.246Z,28.00
2017-07-05T12:43:16.786Z,28.10
2017-07-05T12:45:44.378Z,28.00
2017-07-05T12:48:13.194Z,28.10
2017-07-05T12:50:40.726Z,28.10
2017-07-05T12:53:08.287Z,28.00
2017-07-05T12:55:36.756Z,28.10
2017-07-05T12:58:04.407Z,28.20
2017-07-05T13:00:32.525Z,28.20
2017-07-05T13:03:02.411Z,28.00
2017-07-05T13:05:31.396Z,28.00
2017-07-05T13:07:59.223Z,28.20
2017-07-05T13:10:27.604Z,27.80
2017-07-05T13:12:55.164Z,27.90
2017-07-05T13:15:23.270Z,28.30
2017-07-05T13:17:52.904Z,28.40
2017-07-05T13:20:22.426Z,28.50
2017-07-05T13:22:51.894Z,28.70
2017-07-05T13:25:19.430Z,28.60
2017-07-05T13:27:47.312Z,28.60
2017-07-05T13:30:14.850Z,28.70
2017-07-05T13:32:42.972Z,28.70
2017-07-05T13:35:11.323Z,28.40
2017-07-05T13:37:38.866Z,28.40
2017-07-05T13:40:06.462Z,28.20
2017-07-05T13:42:33.998Z,28.40
2017-07-05T13:45:02.267Z,28.50
2017-07-05T13:47:30.137Z,28.60
2017-07-05T13:49:58.530Z,28.70
2017-07-05T13:52:26.086Z,28.50
2017-07-05T13:54:54.235Z,28.50
2017-07-05T13:57:23.567Z,28.50
2017-07-05T13:59:52.905Z,28.70
2017-07-05T14:02:20.451Z,28.60
2017-07-05T14:04:48.218Z,28.80
2017-07-05T14:07:15.757Z,28.40
2017-07-05T14:09:44.543Z,28.70
2017-07-05T14:12:13.353Z,28.70
2017-07-05T14:14:43.130Z,28.70
2017-07-05T14:17:10.707Z,28.70
2017-07-05T14:19:41.183Z,28.50
2017-07-05T14:22:12.187Z,28.70
2017-07-05T14:24:41.625Z,28.70
2017-07-05T14:27:10.995Z,28.90
2017-07-05T14:29:38.543Z,28.90
2017-07-05T14:32:06.974Z,28.60
2017-07-05T14:37:09.120Z,28.50
2017-07-05T14:39:37.229Z,28.70
2017-07-05T14:42:06.191Z,28.50
2017-07-05T14:44:34.096Z,28.50
2017-07-05T14:47:01.633Z,28.60
2017-07-05T14:49:30.279Z,28.60
2017-07-05T14:51:58.438Z,28.80
2017-07-05T14:54:28.505Z,28.90
2017-07-05T14:56:56.111Z,28.90
2017-07-05T14:59:24.414Z,29.00
2017-07-05T15:01:53.423Z,28.90
2017-07-05T15:04:21.851Z,29.20
2017-07-05T15:06:50.279Z,29.10
2017-07-05T15:09:18.817Z,29.10
2017-07-05T15:11:46.407Z,29.00
2017-07-05T15:14:13.941Z,28.90
2017-07-05T15:16:42.967Z,29.00
2017-07-05T15:19:11.648Z,29.00
2017-07-05T15:21:39.188Z,29.10
2017-07-05T15:24:09.268Z,29.20
2017-07-05T15:26:37.608Z,29.20
2017-07-05T15:29:06.389Z,29.10
2017-07-05T15:31:36.210Z,29.30
2017-07-05T15:34:04.462Z,29.20
2017-07-05T15:36:31.998Z,29.10
2017-07-05T15:39:00.640Z,29.10
2017-07-05T15:41:29.240Z,29.10
2017-07-05T15:43:56.781Z,28.50
2017-07-05T15:46:25.725Z,28.40
2017-07-05T15:48:54.094Z,28.70
2017-07-05T15:51:22.436Z,28.90
2017-07-05T15:53:50.046Z,28.90
2017-07-05T15:56:19.509Z,29.00
2017-07-05T15:58:53.273Z,29.00
2017-07-05T16:01:23.863Z,29.00
2017-07-05T16:03:53.957Z,29.00
2017-07-05T16:06:23.080Z,29.00
2017-07-05T16:08:58.391Z,28.90
2017-07-05T16:11:26.216Z,28.90
2017-07-05T16:13:54.109Z,28.90
2017-07-05T16:16:21.677Z,28.90
2017-07-05T16:18:49.246Z,28.90
2017-07-05T16:21:18.934Z,29.00
2017-07-05T16:23:47.233Z,28.90
2017-07-05T16:26:14.837Z,29.00
2017-07-05T16:28:42.999Z,28.90
2017-07-05T16:31:12.359Z,28.50
2017-07-05T16:33:41.154Z,28.50
2017-07-05T16:36:08.702Z,28.20
2017-07-05T16:38:36.268Z,28.20
2017-07-05T16:41:06.599Z,28.30
2017-07-05T16:43:35.296Z,28.50
2017-07-05T16:46:04.514Z,28.50
2017-07-05T16:48:34.836Z,28.50
2017-07-05T16:51:02.423Z,28.50
2017-07-05T16:53:30.597Z,28.70
2017-07-05T16:58:57.594Z,28.60
2017-07-05T17:01:26.592Z,28.60
2017-07-05T17:03:54.977Z,28.50
2017-07-05T17:06:23.913Z,28.40
2017-07-05T17:08:53.223Z,28.30
2017-07-05T17:11:23.550Z,28.20
2017-07-05T17:13:52.037Z,28.20
2017-07-05T17:16:19.580Z,28.30
2017-07-05T17:18:47.154Z,28.20
2017-07-05T17:21:14.751Z,28.20
2017-07-05T17:23:42.765Z,28.20
2017-07-05T17:26:10.738Z,28.10
2017-07-05T17:28:39.225Z,28.00
2017-07-05T17:31:09.031Z,27.90
2017-07-05T17:33:38.327Z,27.90
2017-07-05T17:36:05.974Z,27.90
2017-07-05T17:38:34.294Z,27.60
2017-07-05T17:41:01.902Z,27.60
2017-07-05T17:43:31.072Z,27.20
2017-07-05T17:45:59.581Z,27.20
2017-07-05T17:48:27.936Z,26.90
2017-07-05T17:50:56.713Z,26.90
2017-07-05T17:53:25.919Z,26.70
2017-07-05T17:55:54.297Z,26.80
2017-07-05T17:58:23.392Z,26.70
2017-07-05T18:00:51.013Z,26.70
2017-07-05T18:03:19.346Z,26.60
2017-07-05T18:05:47.635Z,26.40
2017-07-05T18:08:16.904Z,26.40
2017-07-05T18:10:45.902Z,26.30
2017-07-05T18:13:14.358Z,26.20
2017-07-05T18:15:42.767Z,26.20
2017-07-05T18:18:11.323Z,26.20
2017-07-05T18:20:40.671Z,26.30
2017-07-05T18:23:09.235Z,26.20
2017-07-05T18:25:38.433Z,26.10
2017-07-05T18:28:06.821Z,26.10
2017-07-05T18:30:34.386Z,25.90
2017-07-05T18:33:02.910Z,25.90
2017-07-05T18:35:30.967Z,25.80
2017-07-05T18:38:00.254Z,25.90
2017-07-05T18:40:28.491Z,25.80
2017-07-05T18:42:56.523Z,25.60
2017-07-05T18:45:24.940Z,25.70
2017-07-05T18:47:54.197Z,25.60
2017-07-05T18:50:25.456Z,25.50
2017-07-05T18:52:54.700Z,25.50
2017-07-05T18:55:24.762Z,25.30
2017-07-05T18:57:52.324Z,25.30
2017-07-05T19:00:20.952Z,25.20
2017-07-05T19:02:48.957Z,25.20
2017-07-05T19:05:17.818Z,25.10
2017-07-05T19:07:46.346Z,25.10
2017-07-05T19:10:14.943Z,25.10
2017-07-05T19:12:43.057Z,25.00
2017-07-05T19:15:11.229Z,24.90
2017-07-05T19:17:38.802Z,24.80
2017-07-05T19:20:07.005Z,24.70
2017-07-05T19:22:35.504Z,24.80
2017-07-05T19:25:04.905Z,24.60
2017-07-05T19:27:33.842Z,24.60
2017-07-05T19:30:02.222Z,24.60
2017-07-05T19:32:33.720Z,24.50
2017-07-05T19:35:01.370Z,24.40
2017-07-05T19:37:30.948Z,24.30
2017-07-05T19:39:58.505Z,24.30
2017-07-05T19:42:26.328Z,24.20
2017-07-05T19:44:53.909Z,24.10
2017-07-05T19:47:22.324Z,24.10
2017-07-05T19:49:50.873Z,23.80
2017-07-05T19:52:19.370Z,23.70
2017-07-05T19:54:47.001Z,23.50
2017-07-05T19:57:14.940Z,23.40
2017-07-05T19:59:42.552Z,23.20
2017-07-05T20:02:12.225Z,23.10
2017-07-05T20:04:39.819Z,22.90
2017-07-05T20:07:07.380Z,22.80
2017-07-05T20:09:35.063Z,22.70
2017-07-05T20:12:03.495Z,22.60
2017-07-05T20:14:31.787Z,22.60
2017-07-05T20:16:59.372Z,22.60
2017-07-05T20:19:27.672Z,22.50
2017-07-05T20:21:56.932Z,22.50
2017-07-05T20:24:24.524Z,22.50
2017-07-05T20:26:52.086Z,22.40
2017-07-05T20:29:20.652Z,22.20
2017-07-05T20:31:48.217Z,22.10
2017-07-05T20:34:15.824Z,22.00
2017-07-05T20:36:46.387Z,21.80
2017-07-05T20:39:15.454Z,21.60
2017-07-05T20:41:43.888Z,21.50
2017-07-05T20:44:12.197Z,21.40
2017-07-05T20:46:42.572Z,21.40
2017-07-05T20:49:11.215Z,21.30
2017-07-05T20:51:39.504Z,21.10
2017-07-05T20:54:07.073Z,20.90
2017-07-05T20:56:36.507Z,20.90
2017-07-05T20:59:04.069Z,21.00
2017-07-05T21:01:32.498Z,21.10
2017-07-05T21:04:00.998Z,21.20
2017-07-05T21:06:30.112Z,21.20
2017-07-05T21:08:57.728Z,21.10
2017-07-05T21:11:27.212Z,20.90
2017-07-05T21:13:55.935Z,20.80
2017-07-05T21:16:24.514Z,20.80
2017-07-05T21:18:53.876Z,20.70
2017-07-05T21:21:23.140Z,20.70
2017-07-05T21:23:52.182Z,21.00
2017-07-05T21:26:21.652Z,21.00
2017-07-05T21:28:49.213Z,21.00
2017-07-05T21:31:16.836Z,21.00
2017-07-05T21:33:44.403Z,21.10
2017-07-05T21:36:11.992Z,21.10
2017-07-05T21:38:39.583Z,21.10
2017-07-05T21:41:07.942Z,21.00
2017-07-05T21:43:35.504Z,20.90
2017-07-05T21:46:03.096Z,20.90
2017-07-05T21:48:31.415Z,20.60
2017-07-05T21:50:59.002Z,20.60
2017-07-05T21:53:26.597Z,20.70
2017-07-05T21:55:54.939Z,20.50
2017-07-05T21:58:22.526Z,20.40
2017-07-05T22:00:50.843Z,20.40
2017-07-05T22:03:18.421Z,20.30
2017-07-05T22:05:45.986Z,20.30
2017-07-05T22:08:13.547Z,20.20
2017-07-05T22:10:41.140Z,20.10
2017-07-05T22:13:09.467Z,20.10
2017-07-05T22:15:37.075Z,20.00
2017-07-05T22:18:05.418Z,20.10
2017-07-05T22:20:33.015Z,20.00
2017-07-05T22:23:00.573Z,20.00
2017-07-05T22:25:28.171Z,19.90
2017-07-05T22:27:55.729Z,19.80
2017-07-05T22:30:23.340Z,19.80
2017-07-05T22:32:50.901Z,19.80
2017-07-05T22:35:18.467Z,19.70
2017-07-05T22:37:46.049Z,19.70
2017-07-05T22:40:14.369Z,19.70
2017-07-05T22:42:41.961Z,19.70
2017-07-05T22:45:09.523Z,19.80
2017-07-05T22:47:37.117Z,19.70
2017-07-05T22:50:04.672Z,19.60
2017-07-05T22:52:33.021Z,19.50
2017-07-05T22:55:00.585Z,19.50
2017-07-05T22:57:28.148Z,19.40
2017-07-05T22:59:55.761Z,19.30
2017-07-05T23:02:23.319Z,19.40
2017-07-05T23:04:50.880Z,19.40
2017-07-05T23:07:18.474Z,19.40
2017-07-05T23:09:46.037Z,19.40
2017-07-05T23:12:13.628Z,19.30
2017-07-05T23:14:41.192Z,19.30
2017-07-05T23:17:08.783Z,19.20
2017-07-05T23:19:36.356Z,19.10
2017-07-05T23:22:03.986Z,19.00
2017-07-05T23:24:31.546Z,18.90
2017-07-05T23:26:59.095Z,19.00
2017-07-05T23:29:26.689Z,19.00
2017-07-05T23:31:54.251Z,19.00
2017-07-05T23:34:21.843Z,19.00
2017-07-05T23:36:49.385Z,18.90
2017-07-05T23:39:16.969Z,18.80
2017-07-05T23:41:44.532Z,18.70
2017-07-05T23:44:12.906Z,18.70
2017-07-05T23:46:40.467Z,18.60
2017-07-05T23:49:08.031Z,18.60
2017-07-05T23:51:35.623Z,18.50
2017-07-05T23:54:03.184Z,18.60
2017-07-05T23:56:30.764Z,18.60
2017-07-05T23:58:58.327Z,18.70
